createdAt,value
2022-12-01T00:02:17.688Z,67.63
2022-12-01T00:04:44.129Z,78.05
2022-12-01T00:07:10.865Z,75.10
2022-12-01T00:09:37.221Z,76.05
2022-12-01T00:12:03.734Z,83.25
2022-12-01T00:14:30.063Z,84.70
2022-12-01T00:16:56.422Z,85.30
2022-12-01T00:19:26.376Z,88.80
2022-12-01T00:21:52.738Z,100.15
2022-12-01T00:24:19.117Z,82.68
2022-12-01T00:26:45.496Z,74.90
2022-12-01T00:29:11.863Z,83.72
2022-12-01T00:31:38.298Z,88.97
2022-12-01T00:34:08.214Z,82.05
2022-12-01T00:36:37.538Z,92.22
2022-12-01T00:39:03.881Z,86.63
2022-12-01T00:41:30.220Z,95.32
2022-12-01T00:43:56.572Z,93.03
2022-12-01T00:46:22.984Z,104.45
2022-12-01T00:48:49.368Z,89.25
2022-12-01T00:51:15.725Z,100.97
2022-12-01T00:53:42.032Z,91.45
2022-12-01T00:56:08.346Z,77.78
2022-12-01T00:58:34.687Z,99.82
2022-12-01T01:01:02.231Z,103.88
2022-12-01T01:03:29.985Z,98.68
2022-12-01T01:05:56.439Z,99.85
2022-12-01T01:08:22.807Z,100.88
2022-12-01T01:10:49.398Z,116.82
2022-12-01T01:13:16.525Z,101.47
2022-12-01T01:15:42.878Z,122.40
2022-12-01T01:18:11.305Z,125.40
2022-12-01T01:20:37.655Z,127.60
2022-12-01T01:23:03.961Z,112.22
2022-12-01T01:25:32.413Z,130.57
2022-12-01T01:27:58.717Z,112.68
2022-12-01T01:30:25.147Z,125.30
2022-12-01T01:32:51.489Z,133.70
2022-12-01T01:35:17.881Z,119.10
2022-12-01T01:37:44.206Z,137.70
2022-12-01T01:40:10.952Z,122.72
2022-12-01T01:42:37.298Z,151.25
2022-12-01T01:45:03.961Z,133.60
2022-12-01T01:47:34.636Z,148.60
2022-12-01T01:50:06.776Z,144.77
2022-12-01T01:52:42.918Z,153.88
2022-12-01T01:55:09.606Z,168.05
2022-12-01T01:57:36.258Z,167.77
2022-12-01T02:00:07.697Z,150.50
2022-12-01T02:02:37.398Z,176.25
2022-12-01T02:05:03.898Z,142.25
2022-12-01T02:07:30.592Z,158.65
2022-12-01T02:09:57.602Z,160.55
2022-12-01T02:12:40.262Z,149.30
2022-12-01T02:15:42.239Z,164.38
2022-12-01T02:18:32.492Z,145.23
2022-12-01T02:21:43.192Z,136.98
2022-12-01T02:24:27.452Z,161.15
2022-12-01T02:27:06.906Z,162.23
2022-12-01T02:29:48.550Z,161.93
2022-12-01T02:32:33.537Z,137.95
2022-12-01T02:35:28.605Z,163.93
2022-12-01T02:38:10.007Z,141.50
2022-12-01T02:41:05.303Z,134.80
2022-12-01T02:43:41.929Z,125.22
2022-12-01T02:46:36.706Z,132.55
2022-12-01T02:49:11.281Z,124.43
2022-12-01T02:51:41.103Z,124.03
2022-12-01T02:54:08.350Z,121.60
2022-12-01T02:56:34.698Z,132.57
2022-12-01T02:59:01.003Z,119.72
2022-12-01T03:01:55.306Z,114.53
2022-12-01T03:04:55.932Z,113.70
2022-12-01T03:07:37.398Z,106.75
2022-12-01T03:10:30.150Z,110.68
2022-12-01T03:13:25.640Z,107.40
2022-12-01T03:16:04.607Z,104.50
2022-12-01T03:18:50.666Z,118.15
2022-12-01T03:21:34.731Z,102.47
2022-12-01T03:24:05.517Z,117.00
2022-12-01T03:26:36.156Z,122.25
2022-12-01T03:29:08.096Z,127.68
2022-12-01T03:31:41.496Z,132.70
2022-12-01T03:34:35.497Z,130.93
2022-12-01T03:37:07.008Z,132.10
2022-12-01T03:39:37.935Z,130.10
2022-12-01T03:42:27.891Z,123.22
2022-12-01T03:44:58.947Z,117.63
2022-12-01T03:47:29.998Z,120.35
2022-12-01T03:49:57.066Z,113.55
2022-12-01T03:52:32.376Z,114.03
2022-12-01T03:55:12.901Z,114.47
2022-12-01T03:57:55.536Z,121.72
2022-12-01T04:00:23.434Z,127.20
2022-12-01T04:02:56.294Z,132.52
2022-12-01T04:05:25.470Z,131.25
2022-12-01T04:07:52.875Z,140.90
2022-12-01T04:10:19.280Z,166.13
2022-12-01T04:12:45.740Z,155.32
2022-12-01T04:15:13.662Z,186.73
2022-12-01T04:17:41.505Z,214.27
2022-12-01T04:20:08.242Z,189.05
2022-12-01T04:22:34.795Z,193.75
2022-12-01T04:25:01.116Z,189.18
2022-12-01T04:27:27.499Z,190.73
2022-12-01T04:29:53.818Z,176.32
2022-12-01T04:32:20.198Z,186.90
2022-12-01T04:34:46.529Z,189.35
2022-12-01T04:37:12.866Z,209.23
2022-12-01T04:39:39.391Z,215.45
2022-12-01T04:42:05.750Z,199.45
2022-12-01T04:44:34.982Z,205.63
2022-12-01T04:47:02.679Z,210.05
2022-12-01T04:49:29.085Z,197.45
2022-12-01T04:51:55.456Z,199.18
2022-12-01T04:54:22.126Z,194.20
2022-12-01T04:56:48.478Z,196.35
2022-12-01T04:59:14.856Z,188.63
2022-12-01T05:01:41.303Z,185.93
2022-12-01T05:04:07.684Z,180.82
2022-12-01T05:06:34.012Z,173.52
2022-12-01T05:09:01.673Z,162.90
2022-12-01T05:11:29.839Z,181.50
2022-12-01T05:13:56.198Z,182.27
2022-12-01T05:16:32.578Z,168.70
2022-12-01T05:19:01.796Z,164.98
2022-12-01T05:21:28.114Z,165.80
2022-12-01T05:23:54.424Z,174.07
2022-12-01T05:26:20.767Z,161.30
2022-12-01T05:28:47.086Z,159.82
2022-12-01T05:31:13.428Z,163.23
2022-12-01T05:33:39.781Z,174.55
2022-12-01T05:36:06.369Z,161.57
2022-12-01T05:38:32.666Z,158.80
2022-12-01T05:40:58.992Z,151.38
2022-12-01T05:43:29.049Z,157.85
2022-12-01T05:45:57.011Z,164.10
2022-12-01T05:48:23.998Z,176.27
2022-12-01T05:50:50.342Z,190.68
2022-12-01T05:53:17.403Z,184.10
2022-12-01T05:55:44.089Z,183.45
2022-12-01T05:58:10.955Z,168.32
2022-12-01T06:00:45.429Z,180.02
2022-12-01T06:03:12.612Z,174.75
2022-12-01T06:05:39.084Z,158.02
2022-12-01T06:08:05.558Z,150.38
2022-12-01T06:10:31.945Z,157.00
2022-12-01T06:12:58.272Z,148.00
2022-12-01T06:15:24.622Z,144.00
2022-12-01T06:17:50.939Z,141.50
2022-12-01T06:20:17.506Z,145.23
2022-12-01T06:22:43.853Z,137.27
2022-12-01T06:25:10.853Z,141.80
2022-12-01T06:27:37.426Z,136.60
2022-12-01T06:30:04.661Z,139.93
2022-12-01T06:32:30.964Z,130.82
2022-12-01T06:34:57.272Z,129.60
2022-12-01T06:37:23.625Z,132.00
2022-12-01T06:39:50.134Z,134.57
2022-12-01T06:42:16.657Z,131.27
2022-12-01T06:44:42.984Z,132.85
2022-12-01T06:47:09.307Z,136.15
2022-12-01T06:49:35.782Z,137.30
2022-12-01T06:52:02.126Z,124.00
2022-12-01T06:54:28.534Z,122.82
2022-12-01T06:56:54.893Z,126.93
2022-12-01T06:59:21.522Z,126.90
2022-12-01T07:01:48.408Z,135.63
2022-12-01T07:04:14.794Z,129.15
2022-12-01T07:06:41.112Z,121.38
2022-12-01T07:09:07.425Z,127.82
2022-12-01T07:11:33.763Z,124.90
2022-12-01T07:14:00.074Z,119.88
2022-12-01T07:16:26.476Z,128.98
2022-12-01T07:18:52.808Z,132.55
2022-12-01T07:21:19.145Z,130.95
2022-12-01T07:23:45.629Z,129.00
2022-12-01T07:26:14.300Z,128.95
2022-12-01T07:28:41.207Z,120.22
2022-12-01T07:31:13.815Z,126.10
2022-12-01T07:33:40.505Z,130.30
2022-12-01T07:36:07.770Z,129.75
2022-12-01T07:38:35.199Z,110.63
2022-12-01T07:41:06.815Z,125.15
2022-12-01T07:43:34.190Z,121.22
2022-12-01T07:46:05.590Z,128.82
2022-12-01T07:48:32.038Z,128.75
2022-12-01T07:50:58.356Z,125.65
2022-12-01T07:53:24.746Z,126.93
2022-12-01T07:55:51.052Z,131.68
2022-12-01T07:58:17.556Z,132.20
2022-12-01T08:00:43.919Z,132.20
2022-12-01T08:03:10.345Z,133.55
2022-12-01T08:05:36.781Z,137.15
2022-12-01T08:08:03.327Z,143.68
2022-12-01T08:10:29.691Z,135.77
2022-12-01T08:12:56.048Z,137.25
2022-12-01T08:15:22.631Z,142.52
2022-12-01T08:17:49.034Z,143.32
2022-12-01T08:20:19.551Z,134.52
2022-12-01T08:22:48.768Z,135.68
2022-12-01T08:25:15.167Z,137.98
2022-12-01T08:27:41.498Z,142.32
2022-12-01T08:30:08.576Z,142.50
2022-12-01T08:32:34.975Z,140.27
2022-12-01T08:35:01.278Z,146.63
2022-12-01T08:37:27.590Z,139.13
2022-12-01T08:39:53.902Z,145.82
2022-12-01T08:42:20.224Z,142.02
2022-12-01T08:44:46.603Z,149.20
2022-12-01T08:47:17.306Z,154.02
2022-12-01T08:49:45.117Z,142.27
2022-12-01T08:52:11.425Z,144.63
2022-12-01T08:54:37.805Z,142.52
2022-12-01T08:57:04.300Z,140.57
2022-12-01T08:59:30.597Z,148.27
2022-12-01T09:01:56.974Z,142.25
2022-12-01T09:04:25.155Z,143.00
2022-12-01T09:06:53.533Z,133.80
2022-12-01T09:09:26.248Z,138.60
2022-12-01T09:11:52.691Z,138.30
2022-12-01T09:14:20.619Z,133.88
2022-12-01T09:16:48.340Z,120.82
2022-12-01T09:19:19.197Z,126.15
2022-12-01T09:21:49.962Z,120.88
2022-12-01T09:24:16.378Z,124.53
2022-12-01T09:26:42.766Z,131.68
2022-12-01T09:29:12.281Z,120.72
2022-12-01T09:31:38.824Z,114.70
2022-12-01T09:34:08.588Z,103.25
2022-12-01T09:36:36.342Z,95.85
2022-12-01T09:39:03.044Z,96.82
2022-12-01T09:41:41.847Z,97.50
2022-12-01T09:44:11.138Z,90.60
2022-12-01T09:46:52.803Z,95.32
2022-12-01T09:49:24.161Z,90.95
2022-12-01T09:51:52.586Z,94.55
2022-12-01T09:54:19.010Z,91.43
2022-12-01T09:56:51.045Z,82.85
2022-12-01T09:59:21.701Z,92.47
2022-12-01T10:01:52.536Z,91.63
2022-12-01T10:04:41.476Z,87.63
2022-12-01T10:07:25.493Z,86.47
2022-12-01T10:09:54.935Z,91.03
2022-12-01T10:12:23.745Z,90.63
2022-12-01T10:14:50.743Z,93.45
2022-12-01T10:17:28.032Z,95.40
2022-12-01T10:20:02.907Z,92.60
2022-12-01T10:25:11.292Z,89.55
2022-12-01T10:27:47.772Z,97.97
2022-12-01T10:30:16.585Z,93.18
2022-12-01T10:32:59.059Z,98.75
2022-12-01T10:35:27.884Z,94.43
2022-12-01T10:37:58.853Z,92.47
2022-12-01T10:40:27.033Z,94.20
2022-12-01T10:42:53.972Z,104.32
2022-12-01T10:45:24.428Z,95.65
2022-12-01T10:48:16.811Z,92.15
2022-12-01T10:50:46.185Z,95.43
2022-12-01T10:53:34.765Z,88.38
2022-12-01T10:56:09.922Z,92.00
2022-12-01T10:58:47.208Z,99.93
2022-12-01T11:01:33.466Z,89.93
2022-12-01T11:04:07.651Z,94.95
2022-12-01T11:06:34.633Z,88.30
2022-12-01T11:09:07.012Z,92.20
2022-12-01T11:11:39.349Z,96.45
2022-12-01T11:14:16.927Z,87.50
2022-12-01T11:16:45.777Z,98.82
2022-12-01T11:19:31.067Z,94.13
2022-12-01T11:24:27.321Z,91.88
2022-12-01T11:26:54.117Z,95.93
2022-12-01T11:29:34.434Z,95.55
2022-12-01T11:32:02.346Z,95.13
2022-12-01T11:34:33.704Z,103.13
2022-12-01T11:37:07.009Z,92.25
2022-12-01T11:39:37.387Z,94.00
2022-12-01T11:42:28.341Z,97.10
2022-12-01T11:45:03.154Z,95.03
2022-12-01T11:50:01.329Z,87.72
2022-12-01T11:52:34.631Z,87.78
2022-12-01T11:55:13.018Z,89.95
2022-12-01T11:57:43.517Z,89.00
2022-12-01T12:00:21.456Z,87.35
2022-12-01T12:03:16.118Z,84.85
2022-12-01T12:05:52.792Z,86.43
2022-12-01T12:08:34.495Z,77.53
2022-12-01T12:11:16.693Z,90.47
2022-12-01T12:13:42.947Z,85.82
2022-12-01T12:16:15.208Z,86.38
2022-12-01T12:19:06.582Z,81.78
2022-12-01T12:21:51.255Z,78.43
2022-12-01T12:24:32.103Z,85.35
2022-12-01T12:27:10.675Z,87.78
2022-12-01T12:29:54.277Z,82.65
2022-12-01T12:33:00.717Z,81.22
2022-12-01T12:35:44.463Z,97.88
2022-12-01T12:38:46.403Z,85.82
2022-12-01T12:41:31.375Z,78.20
2022-12-01T12:44:35.377Z,79.18
2022-12-01T12:47:24.962Z,86.28
2022-12-01T12:50:00.374Z,95.50
2022-12-01T12:52:33.469Z,85.97
2022-12-01T12:55:12.074Z,78.75
2022-12-01T12:57:45.221Z,75.90
2022-12-01T13:00:26.820Z,87.15
2022-12-01T13:03:14.746Z,82.35
2022-12-01T13:05:45.187Z,77.50
2022-12-01T13:08:17.402Z,73.43
2022-12-01T13:11:22.860Z,81.60
2022-12-01T13:14:20.338Z,54.80
2022-12-01T13:16:50.264Z,78.78
2022-12-01T13:19:18.621Z,81.05
2022-12-01T13:21:48.186Z,73.53
2022-12-01T13:24:23.027Z,70.65
2022-12-01T13:26:56.956Z,71.13
2022-12-01T13:29:24.838Z,77.05
2022-12-01T13:31:53.068Z,81.60
2022-12-01T13:34:25.139Z,85.90
2022-12-01T13:36:54.060Z,80.07
2022-12-01T13:39:26.299Z,94.90
2022-12-01T13:42:02.261Z,103.30
2022-12-01T13:44:33.907Z,98.25
2022-12-01T13:47:12.218Z,101.07
2022-12-01T13:49:40.582Z,98.93
2022-12-01T13:52:22.140Z,98.88
2022-12-01T13:55:06.855Z,115.13
2022-12-01T13:57:35.808Z,106.50
2022-12-01T14:00:05.702Z,102.32
2022-12-01T14:02:35.393Z,101.30
2022-12-01T14:05:22.022Z,105.18
2022-12-01T14:07:53.541Z,101.30
2022-12-01T14:10:25.786Z,102.85
2022-12-01T14:12:56.367Z,98.00
2022-12-01T14:15:30.404Z,89.07
2022-12-01T14:18:22.002Z,65.35
2022-12-01T14:20:49.111Z,82.05
2022-12-01T14:23:18.375Z,76.72
2022-12-01T14:25:59.215Z,74.07
2022-12-01T14:28:54.918Z,77.40
2022-12-01T14:31:25.486Z,98.70
2022-12-01T14:33:58.541Z,101.57
2022-12-01T14:36:34.030Z,96.47
2022-12-01T14:39:06.107Z,104.70
2022-12-01T14:41:48.069Z,102.10
2022-12-01T14:44:21.037Z,102.50
2022-12-01T14:46:54.187Z,105.85
2022-12-01T14:49:25.542Z,111.18
2022-12-01T14:52:00.483Z,104.90
2022-12-01T14:54:32.445Z,105.85
2022-12-01T14:57:07.371Z,108.72
2022-12-01T14:59:35.539Z,107.95
2022-12-01T15:02:07.723Z,102.97
2022-12-01T15:04:55.066Z,107.68
2022-12-01T15:07:22.805Z,107.35
2022-12-01T15:09:59.522Z,118.82
2022-12-01T15:12:27.589Z,105.15
2022-12-01T15:14:54.079Z,103.35
2022-12-01T15:17:32.770Z,111.18
2022-12-01T15:19:59.319Z,109.15
2022-12-01T15:22:30.663Z,111.03
2022-12-01T15:25:29.613Z,108.00
2022-12-01T15:28:28.850Z,115.72
2022-12-01T15:30:55.736Z,115.88
2022-12-01T15:33:28.317Z,110.35
2022-12-01T15:35:56.266Z,113.82
2022-12-01T15:38:26.856Z,115.55
2022-12-01T15:43:41.745Z,122.68
2022-12-01T15:46:15.971Z,120.35
2022-12-01T15:48:42.725Z,117.25
2022-12-01T15:51:24.421Z,121.38
2022-12-01T15:53:53.380Z,122.43
2022-12-01T15:56:29.417Z,117.20
2022-12-01T15:59:09.413Z,126.45
2022-12-01T16:01:36.672Z,118.63
2022-12-01T16:04:07.231Z,131.65
2022-12-01T16:06:36.638Z,126.25
2022-12-01T16:09:18.549Z,122.40
2022-12-01T16:12:18.548Z,128.30
2022-12-01T16:14:55.767Z,128.18
2022-12-01T16:17:23.747Z,129.52
2022-12-01T16:20:18.960Z,124.40
2022-12-01T16:22:48.216Z,122.65
2022-12-01T16:25:34.970Z,128.93
2022-12-01T16:28:02.666Z,127.30
2022-12-01T16:30:36.052Z,128.25
2022-12-01T16:33:05.212Z,200.02
2022-12-01T16:35:33.338Z,134.45
2022-12-01T16:38:13.035Z,130.55
2022-12-01T16:40:41.658Z,116.40
2022-12-01T16:43:13.703Z,125.60
2022-12-01T16:45:40.108Z,114.70
2022-12-01T16:48:09.444Z,130.40
2022-12-01T16:50:36.349Z,143.57
2022-12-01T16:53:02.733Z,153.50
2022-12-01T16:55:50.990Z,141.23
2022-12-01T16:58:17.838Z,140.70
2022-12-01T17:00:44.515Z,131.13
2022-12-01T17:03:11.847Z,137.75
2022-12-01T17:05:38.321Z,133.55
2022-12-01T17:08:05.599Z,125.90
2022-12-01T17:10:32.070Z,131.88
2022-12-01T17:12:58.367Z,138.82
2022-12-01T17:15:24.739Z,130.95
2022-12-01T17:17:51.024Z,133.32
2022-12-01T17:20:17.605Z,142.60
2022-12-01T17:22:43.948Z,130.02
2022-12-01T17:25:10.296Z,131.77
2022-12-01T17:27:38.050Z,142.45
2022-12-01T17:30:05.941Z,152.65
2022-12-01T17:32:32.315Z,141.82
2022-12-01T17:34:58.665Z,134.50
2022-12-01T17:37:25.008Z,159.05
2022-12-01T17:39:51.311Z,139.63
2022-12-01T17:42:17.632Z,145.43
2022-12-01T17:44:43.997Z,136.90
2022-12-01T17:47:10.476Z,140.38
2022-12-01T17:49:37.371Z,146.63
2022-12-01T17:52:04.623Z,146.85
2022-12-01T17:54:31.246Z,154.52
2022-12-01T17:56:57.619Z,155.55
2022-12-01T17:59:24.006Z,146.75
2022-12-01T18:01:50.423Z,154.95
2022-12-01T18:04:16.768Z,150.45
2022-12-01T18:06:43.051Z,161.98
2022-12-01T18:18:50.533Z,148.63
2022-12-01T18:21:19.181Z,171.45
2022-12-01T18:23:50.212Z,157.73
2022-12-01T18:26:17.245Z,153.95
2022-12-01T18:28:44.323Z,179.68
2022-12-01T18:31:14.364Z,172.40
2022-12-01T18:33:42.107Z,172.13
2022-12-01T18:36:17.720Z,174.85
2022-12-01T18:38:44.588Z,166.80
2022-12-01T18:41:10.976Z,185.23
2022-12-01T18:43:37.273Z,174.60
2022-12-01T18:46:05.702Z,175.20
2022-12-01T18:48:33.157Z,178.23
2022-12-01T18:51:07.189Z,186.65
2022-12-01T18:53:34.470Z,179.95
2022-12-01T18:56:05.660Z,180.35
2022-12-01T18:58:32.566Z,177.68
2022-12-01T19:00:59.972Z,184.98
2022-12-01T19:03:29.745Z,173.88
2022-12-01T19:05:56.078Z,184.82
2022-12-01T19:08:22.556Z,170.13
2022-12-01T19:11:02.803Z,186.85
2022-12-01T19:13:32.924Z,177.35
2022-12-01T19:16:04.496Z,183.30
2022-12-01T19:18:30.836Z,168.00
2022-12-01T19:21:01.133Z,184.20
2022-12-01T19:23:27.495Z,199.15
2022-12-01T19:25:53.807Z,174.55
2022-12-01T19:28:20.197Z,195.60
2022-12-01T19:30:48.306Z,206.32
2022-12-01T19:33:17.471Z,187.20
2022-12-01T19:35:43.775Z,190.60
2022-12-01T19:38:10.116Z,173.15
2022-12-01T19:40:37.552Z,198.13
2022-12-01T19:43:04.028Z,190.82
2022-12-01T19:45:30.382Z,198.25
2022-12-01T19:47:57.572Z,182.90
2022-12-01T19:50:23.911Z,203.52
2022-12-01T19:52:50.220Z,195.38
2022-12-01T19:55:16.562Z,197.35
2022-12-01T19:57:42.911Z,197.77
2022-12-01T20:00:10.039Z,201.80
2022-12-01T20:02:36.420Z,176.90
2022-12-01T20:05:02.793Z,181.90
2022-12-01T20:07:30.055Z,179.25
2022-12-01T20:09:56.403Z,176.55
2022-12-01T20:12:22.745Z,179.70
2022-12-01T20:14:49.445Z,177.48
2022-12-01T20:17:16.203Z,175.73
2022-12-01T20:19:42.578Z,176.15
2022-12-01T20:22:08.922Z,173.98
2022-12-01T20:24:35.370Z,179.07
2022-12-01T20:27:01.700Z,167.50
2022-12-01T20:29:29.764Z,177.45
2022-12-01T20:31:58.084Z,183.63
2022-12-01T20:34:27.754Z,184.77
2022-12-01T20:36:54.702Z,184.00
2022-12-01T20:39:21.228Z,188.70
2022-12-01T20:41:47.706Z,197.32
2022-12-01T20:44:16.144Z,192.50
2022-12-01T20:46:43.150Z,191.95
2022-12-01T20:49:09.454Z,187.15
2022-12-01T20:51:36.020Z,184.25
2022-12-01T20:54:27.952Z,188.38
2022-12-01T20:56:50.663Z,192.02
2022-12-01T20:59:17.016Z,196.07
2022-12-01T21:01:43.350Z,200.02
2022-12-01T21:04:09.651Z,189.27
2022-12-01T21:06:36.001Z,190.55
2022-12-01T21:09:04.058Z,201.82
2022-12-01T21:11:45.141Z,213.52
2022-12-01T21:14:36.441Z,203.70
2022-12-01T21:17:15.821Z,216.35
2022-12-01T21:19:54.031Z,213.45
2022-12-01T21:22:20.345Z,239.20
2022-12-01T21:24:50.321Z,223.05
2022-12-01T21:27:17.691Z,209.10
2022-12-01T21:29:46.633Z,207.75
2022-12-01T21:32:18.786Z,211.50
2022-12-01T21:34:48.994Z,207.13
2022-12-01T21:37:23.538Z,217.20
2022-12-01T21:39:51.886Z,213.82
2022-12-01T21:42:21.135Z,198.35
2022-12-01T21:44:48.241Z,198.02
2022-12-01T21:47:21.019Z,201.63
2022-12-01T21:49:50.813Z,213.27
2022-12-01T21:52:22.729Z,204.43
2022-12-01T21:54:49.890Z,221.10
2022-12-01T21:57:52.600Z,216.90
2022-12-01T22:00:36.419Z,210.35
2022-12-01T22:03:08.683Z,198.38
2022-12-01T22:05:39.022Z,204.65
2022-12-01T22:08:22.025Z,194.02
2022-12-01T22:10:55.777Z,198.55
2022-12-01T22:13:25.868Z,182.38
2022-12-01T22:15:53.671Z,191.00
2022-12-01T22:18:27.181Z,174.48
2022-12-01T22:20:54.007Z,172.30
2022-12-01T22:23:31.979Z,183.57
2022-12-01T22:25:58.311Z,191.10
2022-12-01T22:28:24.630Z,168.95
2022-12-01T22:30:52.186Z,180.48
2022-12-01T22:33:23.921Z,172.43
2022-12-01T22:35:52.472Z,171.05
2022-12-01T22:38:35.191Z,194.52
2022-12-01T22:41:20.744Z,181.75
2022-12-01T22:43:50.776Z,169.77
2022-12-01T22:46:34.663Z,188.95
2022-12-01T22:49:10.141Z,199.27
2022-12-01T22:51:50.744Z,187.45
2022-12-01T22:54:17.027Z,185.63
2022-12-01T22:56:53.731Z,194.75
2022-12-01T22:59:29.226Z,198.85
2022-12-01T23:02:00.864Z,196.48
2022-12-01T23:04:39.717Z,191.90
2022-12-01T23:07:29.387Z,183.90
2022-12-01T23:10:02.206Z,186.82
2022-12-01T23:12:33.494Z,188.18
2022-12-01T23:15:14.787Z,179.80
2022-12-01T23:17:41.232Z,182.50
2022-12-01T23:20:10.626Z,185.35
2022-12-01T23:22:38.426Z,170.50
2022-12-01T23:25:18.968Z,171.57
2022-12-01T23:27:48.194Z,184.80
2022-12-01T23:30:16.229Z,195.23
2022-12-01T23:32:43.689Z,195.55
2022-12-01T23:35:18.901Z,212.75
2022-12-01T23:37:47.843Z,202.48
2022-12-01T23:40:30.437Z,183.90
2022-12-01T23:43:14.598Z,198.73
2022-12-01T23:45:41.057Z,175.00
2022-12-01T23:48:21.923Z,165.75
2022-12-01T23:50:53.157Z,165.20
2022-12-01T23:53:29.164Z,170.15
2022-12-01T23:55:57.990Z,151.18
2022-12-01T23:58:24.340Z,169.55
